createdAt,value
2022-12-29T00:01:20.385Z,-1.58
2022-12-29T00:03:48.898Z,-1.60
2022-12-29T00:06:16.561Z,-1.61
2022-12-29T00:08:44.267Z,-1.61
2022-12-29T00:11:17.515Z,-1.64
2022-12-29T00:14:03.078Z,-1.68
2022-12-29T00:16:34.258Z,-1.66
2022-12-29T00:19:02.621Z,-1.67
2022-12-29T00:21:50.036Z,-1.66
2022-12-29T00:24:41.200Z,-1.68
2022-12-29T00:27:26.078Z,-1.67
2022-12-29T00:30:13.376Z,-1.65
2022-12-29T00:32:59.193Z,-1.63
2022-12-29T00:35:36.537Z,-1.65
2022-12-29T00:38:24.893Z,-1.66
2022-12-29T00:41:21.649Z,-1.71
2022-12-29T00:44:07.299Z,-1.70
2022-12-29T00:46:35.833Z,-1.74
2022-12-29T00:49:21.121Z,-1.78
2022-12-29T00:51:51.824Z,-1.84
2022-12-29T00:54:20.121Z,-1.84
2022-12-29T00:56:53.578Z,-1.90
2022-12-29T00:59:21.762Z,-1.91
2022-12-29T01:01:50.077Z,-1.92
2022-12-29T01:04:18.188Z,-1.94
2022-12-29T01:06:46.311Z,-1.95
2022-12-29T01:09:31.669Z,-1.92
2022-12-29T01:11:59.984Z,-1.96
2022-12-29T01:14:28.004Z,-1.98
2022-12-29T01:16:56.626Z,-2.03
2022-12-29T01:19:24.989Z,-2.02
2022-12-29T01:21:53.046Z,-2.02
2022-12-29T01:24:23.646Z,-2.05
2022-12-29T01:26:51.324Z,-2.07
2022-12-29T01:29:21.669Z,-2.10
2022-12-29T01:31:52.923Z,-2.07
2022-12-29T01:34:23.226Z,-2.07
2022-12-29T01:36:50.881Z,-2.08
2022-12-29T01:39:21.244Z,-2.10
2022-12-29T01:41:48.850Z,-2.11
2022-12-29T01:45:04.544Z,-2.11
2022-12-29T01:47:46.198Z,-2.11
2022-12-29T01:50:17.014Z,-2.14
2022-12-29T01:52:58.616Z,-2.08
2022-12-29T01:55:29.177Z,-2.11
2022-12-29T01:58:01.899Z,-2.10
2022-12-29T02:00:29.534Z,-2.13
2022-12-29T02:02:57.214Z,-2.15
2022-12-29T02:05:40.217Z,-2.17
2022-12-29T02:08:11.579Z,-2.19
2022-12-29T02:10:40.439Z,-2.21
2022-12-29T02:13:13.539Z,-2.23
2022-12-29T02:15:57.837Z,-2.19
2022-12-29T02:18:31.365Z,-2.22
2022-12-29T02:21:13.980Z,-2.21
2022-12-29T02:23:50.782Z,-2.21
2022-12-29T02:26:36.523Z,-2.22
2022-12-29T02:29:25.771Z,-2.21
2022-12-29T02:32:07.868Z,-2.24
2022-12-29T02:34:44.415Z,-2.25
2022-12-29T02:37:20.889Z,-2.26
2022-12-29T02:40:09.705Z,-2.27
2022-12-29T02:42:57.420Z,-2.28
2022-12-29T02:45:38.863Z,-2.29
2022-12-29T02:48:22.519Z,-2.32
2022-12-29T02:51:05.818Z,-2.35
2022-12-29T02:53:56.028Z,-2.41
2022-12-29T02:56:24.703Z,-2.32
2022-12-29T02:58:54.689Z,-2.33
2022-12-29T03:01:29.599Z,-2.38
2022-12-29T03:04:18.760Z,-2.40
2022-12-29T03:06:53.333Z,-2.37
2022-12-29T03:09:39.666Z,-2.36
2022-12-29T03:12:16.339Z,-2.34
2022-12-29T03:15:10.605Z,-2.38
2022-12-29T03:18:03.716Z,-2.42
2022-12-29T03:20:41.706Z,-2.41
2022-12-29T03:23:09.871Z,-2.43
2022-12-29T03:25:47.888Z,-2.41
2022-12-29T03:28:28.229Z,-2.42
2022-12-29T03:30:57.038Z,-2.38
2022-12-29T03:33:29.722Z,-2.38
2022-12-29T03:36:03.743Z,-2.38
2022-12-29T03:38:33.700Z,-2.38
2022-12-29T03:41:08.653Z,-2.36
2022-12-29T03:43:36.801Z,-2.35
2022-12-29T03:46:06.853Z,-2.36
2022-12-29T03:48:34.864Z,-2.36
2022-12-29T03:51:05.000Z,-2.35
2022-12-29T03:53:34.979Z,-2.37
2022-12-29T03:56:04.881Z,-2.34
2022-12-29T03:58:32.465Z,-2.32
2022-12-29T04:01:00.055Z,-2.32
2022-12-29T04:03:27.712Z,-2.30
2022-12-29T04:05:55.376Z,-2.25
2022-12-29T04:08:23.094Z,-2.24
2022-12-29T04:10:51.422Z,-2.28
2022-12-29T04:13:19.174Z,-2.25
2022-12-29T04:15:47.320Z,-2.23
2022-12-29T04:18:18.359Z,-2.22
2022-12-29T04:21:01.342Z,-2.25
2022-12-29T04:23:30.180Z,-2.24
2022-12-29T04:25:57.808Z,-2.25
2022-12-29T04:28:27.590Z,-2.20
2022-12-29T04:30:55.587Z,-2.20
2022-12-29T04:33:26.305Z,-2.22
2022-12-29T04:35:57.312Z,-2.34
2022-12-29T04:38:25.666Z,-2.20
2022-12-29T04:40:58.262Z,-2.09
2022-12-29T04:43:28.868Z,-2.04
2022-12-29T04:45:57.117Z,-1.96
2022-12-29T04:48:24.948Z,-1.87
2022-12-29T04:50:52.713Z,-1.80
2022-12-29T04:53:22.463Z,-1.75
2022-12-29T04:55:54.011Z,-1.66
2022-12-29T04:58:23.263Z,-1.61
2022-12-29T05:00:53.506Z,-1.56
2022-12-29T05:03:21.224Z,-1.47
2022-12-29T05:05:48.980Z,-1.42
2022-12-29T05:08:24.669Z,-1.37
2022-12-29T05:10:55.391Z,-1.32
2022-12-29T05:13:25.731Z,-1.28
2022-12-29T05:15:54.825Z,-1.26
2022-12-29T05:18:24.397Z,-1.23
2022-12-29T05:20:52.335Z,-1.21
2022-12-29T05:23:19.952Z,-1.19
2022-12-29T05:25:47.654Z,-1.20
2022-12-29T05:28:17.530Z,-1.20
2022-12-29T05:30:49.783Z,-1.23
2022-12-29T05:33:18.597Z,-1.22
2022-12-29T05:35:46.760Z,-1.23
2022-12-29T05:38:17.087Z,-1.27
2022-12-29T05:40:46.277Z,-1.28
2022-12-29T05:43:13.993Z,-1.29
2022-12-29T05:45:42.239Z,-1.33
2022-12-29T05:48:12.467Z,-1.35
2022-12-29T05:50:42.290Z,-1.42
2022-12-29T05:53:12.281Z,-1.45
2022-12-29T05:55:45.012Z,-1.46
2022-12-29T05:58:14.675Z,-1.44
2022-12-29T06:00:42.455Z,-1.44
2022-12-29T06:03:10.228Z,-1.47
2022-12-29T06:05:37.916Z,-1.45
2022-12-29T06:08:05.840Z,-1.42
2022-12-29T06:10:33.683Z,-1.45
2022-12-29T06:13:01.284Z,-1.43
2022-12-29T06:15:28.945Z,-1.44
2022-12-29T06:17:56.620Z,-1.38
2022-12-29T06:20:24.419Z,-1.34
2022-12-29T06:22:52.098Z,-1.33
2022-12-29T06:25:19.722Z,-1.31
2022-12-29T06:27:47.441Z,-1.32
2022-12-29T06:30:15.943Z,-1.32
2022-12-29T06:32:43.608Z,-1.27
2022-12-29T06:35:14.598Z,-1.27
2022-12-29T06:37:42.239Z,-1.29
2022-12-29T06:40:10.621Z,-1.32
2022-12-29T06:42:38.260Z,-1.30
2022-12-29T06:45:06.484Z,-1.28
2022-12-29T06:47:34.881Z,-1.23
2022-12-29T06:50:07.438Z,-1.22
2022-12-29T06:52:35.058Z,-1.21
2022-12-29T06:55:02.723Z,-1.13
2022-12-29T06:57:30.310Z,-1.08
2022-12-29T06:59:58.073Z,-1.03
2022-12-29T07:02:26.502Z,-1.02
2022-12-29T07:04:56.801Z,-0.95
2022-12-29T07:07:24.452Z,-0.86
2022-12-29T07:09:52.046Z,-0.74
2022-12-29T07:12:19.722Z,-0.62
2022-12-29T07:14:47.315Z,-0.45
2022-12-29T07:17:14.934Z,-0.28
2022-12-29T07:19:42.605Z,-0.13
2022-12-29T07:22:11.796Z,-0.05
2022-12-29T07:24:40.554Z,0.03
2022-12-29T07:27:10.258Z,0.14
2022-12-29T07:29:40.736Z,0.29
2022-12-29T07:32:08.601Z,0.61
2022-12-29T07:34:40.526Z,0.88
2022-12-29T07:37:10.524Z,1.16
2022-12-29T07:39:38.140Z,1.47
2022-12-29T07:42:05.822Z,1.83
2022-12-29T07:44:33.480Z,2.15
2022-12-29T07:47:01.275Z,2.35
2022-12-29T07:49:30.139Z,2.85
2022-12-29T07:51:57.835Z,3.05
2022-12-29T07:54:25.441Z,3.29
2022-12-29T07:56:53.350Z,3.65
2022-12-29T07:59:20.951Z,3.96
2022-12-29T08:01:50.796Z,4.12
2022-12-29T08:04:18.487Z,4.19
2022-12-29T08:06:46.991Z,3.99
2022-12-29T08:09:19.763Z,3.79
2022-12-29T08:11:49.835Z,3.66
2022-12-29T08:14:17.436Z,4.21
2022-12-29T08:16:45.071Z,4.53
2022-12-29T08:19:14.084Z,4.72
2022-12-29T08:21:44.784Z,4.37
2022-12-29T08:24:12.520Z,3.99
2022-12-29T08:26:40.319Z,3.55
2022-12-29T08:29:07.959Z,3.60
2022-12-29T08:31:36.859Z,3.08
2022-12-29T08:34:05.231Z,2.64
2022-12-29T08:36:35.014Z,2.32
2022-12-29T08:39:02.669Z,1.98
2022-12-29T08:41:30.410Z,1.84
2022-12-29T08:44:00.264Z,1.76
2022-12-29T08:46:27.972Z,1.71
2022-12-29T08:48:56.294Z,1.73
2022-12-29T08:51:25.145Z,1.77
2022-12-29T08:53:53.369Z,1.70
2022-12-29T08:56:21.651Z,1.79
2022-12-29T08:58:49.253Z,1.78
2022-12-29T09:01:16.985Z,1.78
2022-12-29T09:04:13.462Z,1.67
2022-12-29T09:06:39.727Z,1.55
2022-12-29T09:09:08.020Z,1.49
2022-12-29T09:11:35.691Z,1.48
2022-12-29T09:14:03.339Z,1.52
2022-12-29T09:16:31.130Z,2.75
2022-12-29T09:19:01.337Z,3.55
2022-12-29T09:21:29.314Z,4.18
2022-12-29T09:23:57.027Z,3.74
2022-12-29T09:26:27.836Z,3.48
2022-12-29T09:28:55.428Z,3.33
2022-12-29T09:31:23.270Z,3.28
2022-12-29T09:33:53.399Z,3.10
2022-12-29T09:36:21.003Z,2.97
2022-12-29T09:38:48.704Z,2.83
2022-12-29T09:41:24.836Z,2.81
2022-12-29T09:44:07.973Z,2.67
2022-12-29T09:46:51.915Z,2.56
2022-12-29T09:49:46.916Z,2.57
2022-12-29T09:52:22.918Z,2.59
2022-12-29T09:55:03.831Z,2.67
2022-12-29T09:57:57.378Z,2.73
2022-12-29T10:00:37.917Z,2.64
2022-12-29T10:03:16.915Z,2.71
2022-12-29T10:06:12.835Z,2.63
2022-12-29T10:08:49.469Z,2.86
2022-12-29T10:11:54.169Z,2.84
2022-12-29T10:14:39.224Z,2.95
2022-12-29T10:17:21.442Z,2.78
2022-12-29T10:20:14.156Z,2.83
2022-12-29T10:22:55.760Z,2.86
2022-12-29T10:25:31.217Z,2.79
2022-12-29T10:28:05.511Z,2.81
2022-12-29T10:30:35.526Z,2.80
2022-12-29T10:33:12.538Z,2.94
2022-12-29T10:35:43.826Z,2.96
2022-12-29T10:38:34.369Z,3.16
2022-12-29T10:41:13.801Z,3.11
2022-12-29T10:43:50.019Z,3.15
2022-12-29T10:46:27.415Z,3.20
2022-12-29T10:48:55.375Z,3.29
2022-12-29T10:51:40.515Z,3.33
2022-12-29T10:54:29.120Z,3.36
2022-12-29T10:57:02.446Z,3.16
2022-12-29T10:59:36.449Z,3.19
2022-12-29T11:02:07.339Z,3.14
2022-12-29T11:04:44.520Z,3.16
2022-12-29T11:07:16.175Z,3.00
2022-12-29T11:09:48.090Z,3.14
2022-12-29T11:12:25.832Z,3.22
2022-12-29T11:15:09.076Z,3.33
2022-12-29T11:17:52.014Z,3.26
2022-12-29T11:20:31.861Z,3.13
2022-12-29T11:23:02.949Z,3.14
2022-12-29T11:25:30.875Z,3.27
2022-12-29T11:28:02.292Z,3.34
2022-12-29T11:30:33.946Z,3.40
2022-12-29T11:33:07.227Z,3.54
2022-12-29T11:35:42.970Z,3.55
2022-12-29T11:38:44.405Z,3.54
2022-12-29T11:41:25.871Z,3.40
2022-12-29T11:43:55.937Z,3.38
2022-12-29T11:46:33.436Z,3.47
2022-12-29T11:49:02.174Z,3.46
2022-12-29T11:51:41.413Z,3.69
2022-12-29T11:54:20.336Z,3.65
2022-12-29T11:56:48.350Z,3.77
2022-12-29T11:59:32.005Z,3.77
2022-12-29T12:02:18.124Z,3.79
2022-12-29T12:04:46.015Z,3.90
2022-12-29T12:07:14.161Z,4.02
2022-12-29T12:10:06.526Z,4.07
2022-12-29T12:13:10.356Z,4.15
2022-12-29T12:15:57.182Z,4.26
2022-12-29T12:18:50.835Z,4.53
2022-12-29T12:21:31.587Z,4.91
2022-12-29T12:24:14.604Z,5.40
2022-12-29T12:26:56.231Z,5.56
2022-12-29T12:29:36.724Z,5.76
2022-12-29T12:32:08.760Z,6.19
2022-12-29T12:34:42.146Z,6.40
2022-12-29T12:37:29.922Z,6.15
2022-12-29T12:40:08.182Z,6.15
2022-12-29T12:42:58.836Z,6.19
2022-12-29T12:45:44.285Z,6.13
2022-12-29T12:48:49.471Z,6.15
2022-12-29T12:51:46.247Z,5.90
2022-12-29T12:54:33.268Z,5.33
2022-12-29T12:57:24.932Z,4.93
2022-12-29T13:00:05.683Z,5.04
2022-12-29T13:02:48.562Z,5.34
2022-12-29T13:05:26.465Z,5.43
2022-12-29T13:08:16.624Z,5.94
2022-12-29T13:10:59.972Z,5.93
2022-12-29T13:13:36.682Z,6.00
2022-12-29T13:16:29.506Z,5.96
2022-12-29T13:19:20.246Z,6.30
2022-12-29T13:21:56.210Z,6.31
2022-12-29T13:24:52.850Z,6.47
2022-12-29T13:27:35.232Z,6.44
2022-12-29T13:30:11.370Z,6.33
2022-12-29T13:32:44.928Z,6.71
2022-12-29T13:35:38.083Z,6.43
2022-12-29T13:38:13.096Z,6.36
2022-12-29T13:40:45.536Z,6.17
2022-12-29T13:43:15.967Z,5.69
2022-12-29T13:45:49.051Z,5.50
2022-12-29T13:48:19.668Z,5.28
2022-12-29T13:50:57.648Z,5.07
2022-12-29T13:54:02.548Z,4.81
2022-12-29T13:56:50.815Z,4.50
2022-12-29T13:59:18.436Z,4.29
2022-12-29T14:01:58.497Z,4.06
2022-12-29T14:04:34.147Z,3.93
2022-12-29T14:07:16.875Z,3.82
2022-12-29T14:09:47.739Z,3.67
2022-12-29T14:12:34.392Z,3.54
2022-12-29T14:15:14.934Z,3.42
2022-12-29T14:17:43.388Z,3.29
2022-12-29T14:20:25.164Z,3.19
2022-12-29T14:23:12.522Z,3.09
2022-12-29T14:26:12.560Z,2.98
2022-12-29T14:28:42.815Z,2.89
2022-12-29T14:31:17.193Z,2.80
2022-12-29T14:34:13.512Z,2.71
2022-12-29T14:36:45.294Z,2.62
2022-12-29T14:39:58.278Z,2.54
2022-12-29T14:42:25.955Z,2.46
2022-12-29T14:45:03.184Z,2.38
2022-12-29T14:47:33.811Z,2.34
2022-12-29T14:50:13.308Z,2.25
2022-12-29T14:53:02.920Z,2.09
2022-12-29T14:55:47.485Z,2.04
2022-12-29T14:58:34.672Z,1.94
2022-12-29T15:01:02.915Z,1.83
2022-12-29T15:03:39.090Z,1.71
2022-12-29T15:06:09.772Z,1.63
2022-12-29T15:08:41.585Z,1.59
2022-12-29T15:11:15.283Z,1.49
2022-12-29T15:13:45.565Z,1.44
2022-12-29T15:16:33.900Z,1.36
2022-12-29T15:19:01.985Z,1.24
2022-12-29T15:21:37.060Z,1.20
2022-12-29T15:24:05.983Z,1.18
2022-12-29T15:26:42.510Z,1.17
2022-12-29T15:29:33.383Z,1.15
2022-12-29T15:32:18.989Z,1.13
2022-12-29T15:34:52.907Z,1.15
2022-12-29T15:37:30.013Z,1.12
2022-12-29T15:40:00.564Z,1.09
2022-12-29T15:43:15.062Z,1.07
2022-12-29T15:45:43.730Z,1.01
2022-12-29T15:48:25.508Z,0.96
2022-12-29T15:50:54.165Z,0.91
2022-12-29T15:53:29.658Z,0.86
2022-12-29T15:56:09.971Z,0.83
2022-12-29T15:58:49.549Z,0.81
2022-12-29T16:01:20.154Z,0.76
2022-12-29T16:03:48.841Z,0.72
2022-12-29T16:06:25.699Z,0.69
2022-12-29T16:09:20.892Z,0.64
2022-12-29T16:11:57.513Z,0.62
2022-12-29T16:14:35.872Z,0.50
2022-12-29T16:17:05.970Z,0.51
2022-12-29T16:19:41.590Z,0.49
2022-12-29T16:22:17.324Z,0.45
2022-12-29T16:24:45.315Z,0.41
2022-12-29T16:27:30.510Z,0.37
2022-12-29T16:29:58.243Z,0.35
2022-12-29T16:32:36.380Z,0.31
2022-12-29T16:35:27.862Z,0.24
2022-12-29T16:38:15.601Z,0.28
2022-12-29T16:40:55.551Z,0.24
2022-12-29T16:43:23.214Z,0.29
2022-12-29T16:45:54.242Z,0.31
2022-12-29T16:48:29.707Z,0.30
2022-12-29T16:51:27.237Z,0.26
2022-12-29T16:53:57.681Z,0.28
2022-12-29T16:56:32.745Z,0.25
2022-12-29T16:59:22.163Z,0.22
2022-12-29T17:01:49.993Z,0.18
2022-12-29T17:04:17.861Z,0.18
2022-12-29T17:06:45.550Z,0.13
2022-12-29T17:09:25.071Z,0.09
2022-12-29T17:12:03.979Z,0.06
2022-12-29T17:14:53.971Z,0.04
2022-12-29T17:17:35.371Z,0.03
2022-12-29T17:20:07.440Z,0.04
2022-12-29T17:22:35.104Z,-0.01
2022-12-29T17:25:04.109Z,-0.05
2022-12-29T17:27:37.992Z,-0.06
2022-12-29T17:30:13.356Z,-0.03
2022-12-29T17:32:45.499Z,-0.02
2022-12-29T17:35:17.713Z,-0.03
2022-12-29T17:37:47.888Z,-0.05
2022-12-29T17:40:17.922Z,-0.06
2022-12-29T17:42:49.314Z,-0.07
2022-12-29T17:45:19.320Z,-0.07
2022-12-29T17:47:47.516Z,-0.03
2022-12-29T17:50:20.901Z,-0.04
2022-12-29T17:53:00.203Z,0.01
2022-12-29T17:55:36.860Z,0.02
2022-12-29T17:58:18.370Z,0.04
2022-12-29T18:00:47.634Z,-0.02
2022-12-29T18:03:20.106Z,-0.10
2022-12-29T18:05:49.816Z,-0.04
2022-12-29T18:08:20.686Z,-0.05
2022-12-29T18:10:53.869Z,-0.06
2022-12-29T18:13:35.785Z,-0.04
2022-12-29T18:16:13.430Z,-0.06
2022-12-29T18:18:47.206Z,-0.07
2022-12-29T18:21:24.335Z,-0.08
2022-12-29T18:23:54.725Z,-0.13
2022-12-29T18:26:28.673Z,-0.19
2022-12-29T18:28:57.812Z,-0.21
2022-12-29T18:31:28.558Z,-0.23
2022-12-29T18:33:58.230Z,-0.22
2022-12-29T18:36:29.568Z,-0.25
2022-12-29T18:38:57.179Z,-0.23
2022-12-29T18:41:30.272Z,-0.22
2022-12-29T18:43:58.636Z,-0.20
2022-12-29T18:46:26.628Z,-0.19
2022-12-29T18:48:56.836Z,-0.17
2022-12-29T18:51:26.219Z,-0.13
2022-12-29T18:53:54.781Z,-0.11
2022-12-29T18:56:23.588Z,-0.14
2022-12-29T18:58:53.434Z,-0.24
2022-12-29T19:01:24.797Z,-0.12
2022-12-29T19:03:53.286Z,-0.12
2022-12-29T19:06:22.027Z,-0.16
2022-12-29T19:08:52.118Z,-0.17
2022-12-29T19:11:19.908Z,-0.17
2022-12-29T19:13:47.480Z,-0.19
2022-12-29T19:16:22.986Z,-0.16
2022-12-29T19:19:07.984Z,-0.17
2022-12-29T19:21:37.577Z,-0.20
2022-12-29T19:24:05.557Z,-0.23
2022-12-29T19:26:38.312Z,-0.28
2022-12-29T19:29:08.549Z,-0.31
2022-12-29T19:31:38.320Z,-0.35
2022-12-29T19:34:10.892Z,-0.37
2022-12-29T19:36:38.532Z,-0.38
2022-12-29T19:39:08.606Z,-0.33
2022-12-29T19:41:39.890Z,-0.29
2022-12-29T19:44:08.644Z,-0.25
2022-12-29T19:46:36.378Z,-0.28
2022-12-29T19:49:04.110Z,-0.30
2022-12-29T19:51:31.917Z,-0.28
2022-12-29T19:53:59.685Z,-0.29
2022-12-29T19:56:28.604Z,-0.28
2022-12-29T19:58:57.410Z,-0.22
2022-12-29T20:01:25.877Z,-0.24
2022-12-29T20:03:53.673Z,-0.21
2022-12-29T20:06:21.620Z,-0.24
2022-12-29T20:08:51.432Z,-0.24
2022-12-29T20:11:20.345Z,-0.27
2022-12-29T20:13:48.805Z,-0.26
2022-12-29T20:16:19.556Z,-0.28
2022-12-29T20:18:51.208Z,-0.28
2022-12-29T20:21:22.227Z,-0.26
2022-12-29T20:23:51.152Z,-0.25
2022-12-29T20:26:24.577Z,-0.26
2022-12-29T20:28:52.327Z,-0.26
2022-12-29T20:31:26.743Z,-0.25
2022-12-29T20:33:57.418Z,-0.20
2022-12-29T20:36:28.472Z,-0.26
2022-12-29T20:38:59.948Z,-0.16
2022-12-29T20:41:30.996Z,-0.17
2022-12-29T20:44:01.133Z,-0.16
2022-12-29T20:46:35.356Z,-0.14
2022-12-29T20:49:09.285Z,-0.14
2022-12-29T20:52:04.449Z,-0.14
2022-12-29T20:54:25.501Z,-0.16
2022-12-29T20:56:58.118Z,-0.15
2022-12-29T20:59:27.713Z,-0.14
2022-12-29T21:01:56.613Z,-0.14
2022-12-29T21:04:43.794Z,-0.15
2022-12-29T21:07:20.178Z,-0.17
2022-12-29T21:09:50.293Z,-0.17
2022-12-29T21:12:17.916Z,-0.12
2022-12-29T21:14:46.120Z,-0.11
2022-12-29T21:17:13.875Z,-0.13
2022-12-29T21:19:41.542Z,-0.16
2022-12-29T21:22:11.265Z,-0.09
2022-12-29T21:24:39.580Z,-0.09
2022-12-29T21:27:07.179Z,-0.08
2022-12-29T21:29:36.971Z,-0.06
2022-12-29T21:32:06.832Z,-0.03
2022-12-29T21:34:35.632Z,-0.04
2022-12-29T21:37:03.382Z,-0.01
2022-12-29T21:39:30.997Z,-0.01
2022-12-29T21:42:00.272Z,-0.01
2022-12-29T21:44:46.188Z,-0.01
2022-12-29T21:47:15.094Z,-0.02
2022-12-29T21:49:44.846Z,-0.05
2022-12-29T21:52:12.560Z,-0.05
2022-12-29T21:54:57.612Z,-0.03
2022-12-29T21:57:55.374Z,0.02
2022-12-29T22:00:40.815Z,0.10
2022-12-29T22:03:29.024Z,0.19
2022-12-29T22:06:14.057Z,0.21
2022-12-29T22:08:59.505Z,0.29
2022-12-29T22:11:45.785Z,0.31
2022-12-29T22:14:13.457Z,0.34
2022-12-29T22:16:41.077Z,0.40
2022-12-29T22:19:10.563Z,0.39
2022-12-29T22:21:38.192Z,0.40
2022-12-29T22:24:06.040Z,0.40
2022-12-29T22:26:36.137Z,0.44
2022-12-29T22:29:05.799Z,0.45
2022-12-29T22:31:33.864Z,0.51
2022-12-29T22:34:03.556Z,0.57
2022-12-29T22:36:32.283Z,0.60
2022-12-29T22:39:00.145Z,0.67
2022-12-29T22:41:30.193Z,0.71
2022-12-29T22:43:57.783Z,0.79
2022-12-29T22:46:25.504Z,0.83
2022-12-29T22:48:58.016Z,0.87
2022-12-29T22:51:27.724Z,0.91
2022-12-29T22:53:55.294Z,0.95
2022-12-29T22:56:23.153Z,0.96
2022-12-29T22:58:51.472Z,0.90
2022-12-29T23:01:22.477Z,0.95
2022-12-29T23:03:50.550Z,0.93
2022-12-29T23:06:21.220Z,0.95
2022-12-29T23:08:48.979Z,0.96
2022-12-29T23:11:17.377Z,1.01
2022-12-29T23:13:46.129Z,1.11
2022-12-29T23:16:20.461Z,1.15
2022-12-29T23:18:52.351Z,1.18
2022-12-29T23:21:21.771Z,1.22
2022-12-29T23:23:54.788Z,1.22
2022-12-29T23:26:32.372Z,1.26
2022-12-29T23:29:01.596Z,1.26
2022-12-29T23:31:30.569Z,1.28
2022-12-29T23:33:59.764Z,1.30
2022-12-29T23:36:28.200Z,1.32
2022-12-29T23:39:01.128Z,1.33
2022-12-29T23:41:29.624Z,1.37
2022-12-29T23:43:59.461Z,1.38
2022-12-29T23:46:35.402Z,1.43
2022-12-29T23:49:04.391Z,1.48
2022-12-29T23:51:34.743Z,1.51
2022-12-29T23:54:02.480Z,1.47
2022-12-29T23:56:30.357Z,1.51
2022-12-29T23:58:58.086Z,1.50
